createdAt,value
2019-05-20T00:00:27.729Z,7.30
2019-05-20T00:02:56.140Z,6.70
2019-05-20T00:05:25.049Z,20.33
2019-05-20T00:07:53.666Z,7.80
2019-05-20T00:10:22.149Z,8.17
2019-05-20T00:12:50.557Z,7.70
2019-05-20T00:15:18.954Z,7.80
2019-05-20T00:17:47.699Z,7.73
2019-05-20T00:20:16.278Z,8.30
2019-05-20T00:22:44.746Z,8.10
2019-05-20T00:25:13.351Z,8.83
2019-05-20T00:27:41.781Z,7.70
2019-05-20T00:30:10.967Z,8.13
2019-05-20T00:32:41.863Z,7.90
2019-05-20T00:35:10.541Z,8.50
2019-05-20T00:37:38.973Z,8.10
2019-05-20T00:40:08.176Z,9.00
2019-05-20T00:42:36.696Z,8.97
2019-05-20T00:45:05.935Z,9.40
2019-05-20T00:47:34.362Z,8.80
2019-05-20T00:50:03.320Z,9.33
2019-05-20T00:52:31.875Z,10.50
2019-05-20T00:55:00.459Z,9.57
2019-05-20T00:57:28.896Z,9.73
2019-05-20T00:59:57.697Z,9.87
2019-05-20T01:02:26.136Z,9.97
2019-05-20T01:04:54.663Z,9.70
2019-05-20T01:07:23.304Z,10.37
2019-05-20T01:09:51.750Z,10.00
2019-05-20T01:12:20.514Z,13.13
2019-05-20T01:14:48.896Z,9.73
2019-05-20T01:17:17.329Z,11.17
2019-05-20T01:19:45.749Z,10.23
2019-05-20T01:22:14.161Z,10.10
2019-05-20T01:24:42.718Z,9.93
2019-05-20T01:27:11.121Z,9.33
2019-05-20T01:29:39.536Z,11.80
2019-05-20T01:32:07.964Z,10.13
2019-05-20T01:34:36.639Z,11.20
2019-05-20T01:37:05.074Z,12.00
2019-05-20T01:39:33.549Z,11.47
2019-05-20T01:42:02.028Z,11.00
2019-05-20T01:44:30.433Z,11.07
2019-05-20T01:46:58.869Z,10.20
2019-05-20T01:49:27.358Z,12.40
2019-05-20T01:51:56.156Z,12.73
2019-05-20T01:54:24.557Z,11.87
2019-05-20T01:56:53.058Z,12.00
2019-05-20T01:59:21.533Z,12.53
2019-05-20T02:01:49.955Z,12.30
2019-05-20T02:04:18.425Z,13.40
2019-05-20T02:06:46.833Z,12.77
2019-05-20T02:09:15.363Z,11.97
2019-05-20T02:11:44.008Z,12.20
2019-05-20T02:14:14.218Z,12.63
2019-05-20T02:16:42.621Z,14.63
2019-05-20T02:19:11.112Z,12.67
2019-05-20T02:21:39.692Z,13.40
2019-05-20T02:24:08.101Z,12.90
2019-05-20T02:26:36.528Z,12.67
2019-05-20T02:29:04.943Z,12.00
2019-05-20T02:31:33.371Z,15.20
2019-05-20T02:34:01.779Z,13.73
2019-05-20T02:36:30.194Z,13.00
2019-05-20T02:38:58.618Z,13.40
2019-05-20T02:41:27.312Z,12.47
2019-05-20T02:43:55.792Z,14.73
2019-05-20T02:46:24.266Z,13.97
2019-05-20T02:48:52.716Z,15.00
2019-05-20T02:51:22.823Z,14.90
2019-05-20T02:53:51.247Z,15.33
2019-05-20T02:56:19.682Z,15.10
2019-05-20T02:58:48.177Z,13.10
2019-05-20T03:01:16.640Z,15.60
2019-05-20T03:03:45.173Z,15.67
2019-05-20T03:06:13.672Z,14.90
2019-05-20T03:08:42.138Z,14.20
2019-05-20T03:11:10.644Z,13.70
2019-05-20T03:13:39.133Z,16.53
2019-05-20T03:16:07.568Z,15.37
2019-05-20T03:18:36.021Z,14.83
2019-05-20T03:21:04.582Z,14.83
2019-05-20T03:23:33.048Z,15.73
2019-05-20T03:26:01.462Z,15.80
2019-05-20T03:28:30.065Z,15.50
2019-05-20T03:30:58.545Z,15.07
2019-05-20T03:33:27.109Z,14.63
2019-05-20T03:35:55.647Z,16.03
2019-05-20T03:38:24.226Z,15.40
2019-05-20T03:40:52.709Z,15.50
2019-05-20T03:43:21.235Z,15.67
2019-05-20T03:45:49.769Z,14.20
2019-05-20T03:48:18.229Z,16.70
2019-05-20T03:50:46.622Z,17.03
2019-05-20T03:53:15.065Z,16.90
2019-05-20T03:55:44.108Z,15.20
2019-05-20T03:58:13.805Z,14.40
2019-05-20T04:00:44.575Z,16.50
2019-05-20T04:03:14.295Z,14.67
2019-05-20T04:05:42.790Z,15.10
2019-05-20T04:08:11.412Z,16.13
2019-05-20T04:10:39.859Z,15.67
2019-05-20T04:13:08.327Z,13.83
2019-05-20T04:15:36.882Z,14.07
2019-05-20T04:18:05.282Z,14.67
2019-05-20T04:20:33.754Z,13.77
2019-05-20T04:23:02.355Z,15.17
2019-05-20T04:25:31.080Z,13.77
2019-05-20T04:27:59.540Z,15.70
2019-05-20T04:30:28.051Z,13.33
2019-05-20T04:32:56.709Z,14.87
2019-05-20T04:35:49.273Z,14.07
2019-05-20T04:38:15.027Z,14.60
2019-05-20T04:40:46.370Z,12.83
2019-05-20T04:43:17.849Z,14.47
2019-05-20T04:45:46.340Z,14.33
2019-05-20T04:48:14.762Z,13.60
2019-05-20T04:50:43.171Z,12.37
2019-05-20T04:53:11.674Z,14.60
2019-05-20T04:55:40.424Z,13.07
2019-05-20T04:58:08.991Z,14.10
2019-05-20T05:00:49.301Z,13.40
2019-05-20T05:03:17.750Z,15.67
2019-05-20T05:05:46.433Z,13.93
2019-05-20T05:08:15.013Z,13.70
2019-05-20T05:10:43.453Z,12.47
2019-05-20T05:13:11.980Z,15.27
2019-05-20T05:15:40.587Z,12.37
2019-05-20T05:18:09.163Z,14.33
2019-05-20T05:20:37.837Z,13.23
2019-05-20T05:23:06.390Z,13.13
2019-05-20T05:25:35.649Z,12.03
2019-05-20T05:28:04.590Z,11.90
2019-05-20T05:30:33.757Z,14.40
2019-05-20T05:33:02.255Z,11.70
2019-05-20T05:35:30.719Z,12.87
2019-05-20T05:37:59.285Z,15.53
2019-05-20T05:40:33.657Z,12.30
2019-05-20T05:43:02.375Z,11.50
2019-05-20T05:45:32.751Z,14.40
2019-05-20T05:48:01.703Z,11.60
2019-05-20T05:50:41.611Z,12.43
2019-05-20T05:53:10.053Z,13.30
2019-05-20T05:55:38.487Z,12.07
2019-05-20T05:58:08.702Z,13.37
2019-05-20T06:00:37.549Z,13.60
2019-05-20T06:03:06.086Z,10.80
2019-05-20T06:05:34.521Z,11.60
2019-05-20T06:08:02.941Z,13.63
2019-05-20T06:10:31.401Z,10.17
2019-05-20T06:12:59.918Z,14.43
2019-05-20T06:15:28.343Z,11.33
2019-05-20T06:17:56.747Z,13.20
2019-05-20T06:20:25.288Z,13.97
2019-05-20T06:22:53.746Z,11.73
2019-05-20T06:25:22.308Z,13.20
2019-05-20T06:27:50.771Z,15.13
2019-05-20T06:30:21.441Z,11.00
2019-05-20T06:32:49.882Z,11.90
2019-05-20T06:35:18.732Z,13.20
2019-05-20T06:37:48.870Z,11.07
2019-05-20T06:40:17.415Z,12.10
2019-05-20T06:42:45.899Z,11.43
2019-05-20T06:45:33.778Z,12.17
2019-05-20T06:48:02.706Z,12.77
2019-05-20T06:50:31.216Z,12.03
2019-05-20T06:52:59.678Z,12.67
2019-05-20T06:55:28.150Z,11.27
2019-05-20T06:57:56.550Z,11.97
2019-05-20T07:00:36.178Z,13.70
2019-05-20T07:03:05.637Z,13.83
2019-05-20T07:05:34.475Z,14.30
2019-05-20T07:08:02.878Z,10.70
2019-05-20T07:10:31.304Z,10.93
2019-05-20T07:12:59.719Z,11.83
2019-05-20T07:15:28.274Z,9.90
2019-05-20T07:17:56.665Z,12.90
2019-05-20T07:20:25.480Z,21.70
2019-05-20T07:22:56.163Z,12.83
2019-05-20T07:25:24.844Z,11.57
2019-05-20T07:27:53.372Z,11.87
2019-05-20T07:30:21.847Z,12.77
2019-05-20T07:32:50.273Z,11.10
2019-05-20T07:35:29.619Z,13.70
2019-05-20T07:37:49.697Z,12.07
2019-05-20T07:40:32.210Z,14.57
2019-05-20T07:43:00.979Z,12.93
2019-05-20T07:45:32.456Z,13.07
2019-05-20T07:48:01.386Z,12.83
2019-05-20T07:50:30.345Z,13.50
2019-05-20T07:53:00.640Z,12.77
2019-05-20T07:55:32.112Z,12.77
2019-05-20T07:58:03.680Z,13.63
2019-05-20T08:00:32.265Z,14.13
2019-05-20T08:03:00.776Z,14.43
2019-05-20T08:05:29.326Z,15.33
2019-05-20T08:07:57.841Z,14.17
2019-05-20T08:10:26.297Z,13.93
2019-05-20T08:12:55.466Z,15.10
2019-05-20T08:15:23.991Z,15.10
2019-05-20T08:17:52.514Z,17.37
2019-05-20T08:20:22.579Z,17.00
2019-05-20T08:22:51.088Z,15.30
2019-05-20T08:25:19.915Z,14.17
2019-05-20T08:27:48.460Z,18.13
2019-05-20T08:30:19.938Z,16.60
2019-05-20T08:32:48.404Z,15.00
2019-05-20T08:35:16.936Z,18.57
2019-05-20T08:37:46.116Z,16.40
2019-05-20T08:40:14.822Z,15.60
2019-05-20T08:42:43.371Z,15.77
2019-05-20T08:45:12.750Z,16.30
2019-05-20T08:47:41.234Z,15.90
2019-05-20T08:50:15.675Z,16.00
2019-05-20T08:52:40.325Z,15.23
2019-05-20T08:55:08.934Z,17.10
2019-05-20T08:57:37.419Z,19.37
2019-05-20T09:00:11.620Z,18.70
2019-05-20T09:02:40.100Z,18.13
2019-05-20T09:05:08.765Z,18.40
2019-05-20T09:07:37.179Z,19.00
2019-05-20T09:10:05.987Z,23.50
2019-05-20T09:12:34.488Z,16.67
2019-05-20T09:15:03.270Z,20.23
2019-05-20T09:17:31.689Z,21.20
2019-05-20T09:20:00.223Z,18.90
2019-05-20T09:22:28.641Z,20.87
2019-05-20T09:24:58.061Z,17.97
2019-05-20T09:27:26.707Z,20.50
2019-05-20T09:29:55.165Z,20.80
2019-05-20T09:32:23.774Z,18.30
2019-05-20T09:34:52.265Z,22.83
2019-05-20T09:37:20.831Z,19.30
2019-05-20T09:39:50.032Z,24.37
2019-05-20T09:42:18.454Z,20.93
2019-05-20T09:44:47.122Z,24.93
2019-05-20T09:47:15.721Z,24.90
2019-05-20T09:49:44.143Z,21.67
2019-05-20T09:52:12.647Z,20.00
2019-05-20T09:54:41.251Z,20.60
2019-05-20T09:57:09.753Z,17.07
2019-05-20T09:59:43.179Z,18.90
2019-05-20T10:02:08.926Z,19.90
2019-05-20T10:04:37.369Z,19.43
2019-05-20T10:07:05.872Z,18.63
2019-05-20T10:09:34.291Z,20.07
2019-05-20T10:12:02.710Z,19.93
2019-05-20T10:14:31.184Z,19.90
2019-05-20T10:16:59.637Z,19.80
2019-05-20T10:19:28.114Z,22.77
2019-05-20T10:21:56.511Z,24.67
2019-05-20T10:24:25.000Z,23.27
2019-05-20T10:26:53.563Z,23.43
2019-05-20T10:29:22.048Z,22.20
2019-05-20T10:31:50.528Z,24.73
2019-05-20T10:34:18.993Z,25.03
2019-05-20T10:36:47.409Z,24.13
2019-05-20T10:39:15.961Z,26.00
2019-05-20T10:41:44.373Z,27.83
2019-05-20T10:44:12.843Z,26.07
2019-05-20T10:46:41.392Z,27.17
2019-05-20T10:49:09.817Z,29.83
2019-05-20T10:51:38.249Z,26.93
2019-05-20T10:54:06.716Z,33.57
2019-05-20T10:56:35.103Z,27.60
2019-05-20T10:59:03.543Z,24.60
2019-05-20T11:01:31.969Z,27.87
2019-05-20T11:04:00.401Z,27.80
2019-05-20T11:06:28.858Z,27.00
2019-05-20T11:09:11.714Z,25.37
2019-05-20T11:11:27.458Z,24.97
2019-05-20T11:13:55.942Z,27.03
2019-05-20T11:16:24.466Z,26.37
2019-05-20T11:18:52.969Z,25.93
2019-05-20T11:21:21.769Z,29.00
2019-05-20T11:23:50.317Z,29.20
2019-05-20T11:26:18.820Z,27.70
2019-05-20T11:28:47.234Z,29.67
2019-05-20T11:31:15.667Z,36.20
2019-05-20T11:33:44.199Z,32.13
2019-05-20T11:36:12.756Z,32.93
2019-05-20T11:38:41.303Z,32.20
2019-05-20T11:41:09.766Z,35.13
2019-05-20T11:43:38.247Z,35.33
2019-05-20T11:46:06.670Z,33.60
2019-05-20T11:48:35.077Z,32.53
2019-05-20T11:51:03.577Z,31.83
2019-05-20T11:53:32.022Z,34.33
2019-05-20T11:56:00.526Z,32.67
2019-05-20T11:58:29.289Z,30.93
2019-05-20T12:00:57.738Z,34.27
2019-05-20T12:03:26.564Z,36.00
2019-05-20T12:05:55.224Z,34.50
2019-05-20T12:08:23.833Z,46.63
2019-05-20T12:10:52.264Z,41.87
2019-05-20T12:13:20.666Z,25.53
2019-05-20T12:15:49.090Z,20.70
2019-05-20T12:18:17.486Z,14.77
2019-05-20T12:20:45.955Z,15.47
2019-05-20T12:23:14.421Z,15.40
2019-05-20T12:25:42.875Z,18.30
2019-05-20T12:28:11.640Z,18.10
2019-05-20T12:30:40.161Z,20.13
2019-05-20T12:33:18.651Z,12.93
2019-05-20T12:35:38.769Z,13.87
2019-05-20T12:38:07.176Z,13.37
2019-05-20T12:40:35.939Z,17.33
2019-05-20T12:43:04.515Z,20.90
2019-05-20T12:45:32.958Z,17.23
2019-05-20T12:48:01.456Z,18.97
2019-05-20T12:50:29.902Z,21.30
2019-05-20T12:52:58.306Z,22.23
2019-05-20T12:55:26.728Z,18.53
2019-05-20T12:57:55.510Z,14.93
2019-05-20T13:00:25.519Z,18.63
2019-05-20T13:02:53.951Z,14.47
2019-05-20T13:05:22.461Z,14.10
2019-05-20T13:07:50.870Z,13.50
2019-05-20T13:10:31.440Z,16.00
2019-05-20T13:12:51.049Z,15.00
2019-05-20T13:15:20.188Z,16.77
2019-05-20T13:17:48.743Z,19.03
2019-05-20T13:20:17.232Z,18.93
2019-05-20T13:22:45.670Z,20.07
2019-05-20T13:25:14.168Z,20.97
2019-05-20T13:27:42.620Z,23.90
2019-05-20T13:30:11.751Z,22.30
2019-05-20T13:32:40.244Z,19.97
2019-05-20T13:35:09.134Z,21.57
2019-05-20T13:37:37.804Z,22.77
2019-05-20T13:40:06.769Z,20.03
2019-05-20T13:42:35.407Z,20.97
2019-05-20T13:45:05.386Z,18.30
2019-05-20T13:47:33.925Z,21.47
2019-05-20T13:50:02.434Z,20.93
2019-05-20T13:52:30.962Z,20.53
2019-05-20T13:54:59.359Z,19.70
2019-05-20T13:57:28.126Z,23.20
2019-05-20T13:59:56.529Z,19.73
2019-05-20T14:02:25.395Z,19.27
2019-05-20T14:04:53.797Z,19.73
2019-05-20T14:07:22.316Z,17.80
2019-05-20T14:09:51.630Z,17.50
2019-05-20T14:12:20.238Z,16.80
2019-05-20T14:14:48.654Z,16.57
2019-05-20T14:17:17.209Z,16.97
2019-05-20T14:19:45.730Z,13.70
2019-05-20T14:22:14.211Z,12.70
2019-05-20T14:24:42.624Z,12.27
2019-05-20T14:27:11.094Z,11.87
2019-05-20T14:29:39.556Z,11.70
2019-05-20T14:32:07.970Z,10.67
2019-05-20T14:34:36.405Z,12.30
2019-05-20T14:37:04.884Z,9.60
2019-05-20T14:39:33.354Z,8.80
2019-05-20T14:42:02.124Z,8.43
2019-05-20T14:44:33.576Z,9.83
2019-05-20T14:47:02.048Z,9.97
2019-05-20T14:49:30.449Z,9.50
2019-05-20T14:51:58.910Z,11.07
2019-05-20T14:54:27.396Z,11.73
2019-05-20T14:56:57.629Z,11.47
2019-05-20T14:59:26.051Z,11.53
2019-05-20T15:01:54.584Z,11.93
2019-05-20T15:04:23.131Z,12.07
2019-05-20T15:06:51.640Z,12.20
2019-05-20T15:09:20.045Z,12.73
2019-05-20T15:11:48.507Z,18.50
2019-05-20T15:14:17.035Z,13.03
2019-05-20T15:16:45.572Z,13.40
2019-05-20T15:19:14.266Z,17.00
2019-05-20T15:21:42.736Z,14.43
2019-05-20T15:24:11.282Z,16.57
2019-05-20T15:26:39.768Z,17.33
2019-05-20T15:29:08.358Z,16.97
2019-05-20T15:31:36.772Z,15.93
2019-05-20T15:34:05.218Z,16.60
2019-05-20T15:36:33.869Z,17.43
2019-05-20T15:39:02.316Z,15.07
2019-05-20T15:41:30.823Z,16.50
2019-05-20T15:43:59.234Z,15.47
2019-05-20T15:46:27.831Z,14.90
2019-05-20T15:48:56.294Z,17.00
2019-05-20T15:51:24.699Z,15.57
2019-05-20T15:53:54.761Z,16.73
2019-05-20T15:56:23.178Z,17.30
2019-05-20T15:58:51.600Z,17.30
2019-05-20T16:01:20.012Z,16.80
2019-05-20T16:03:51.383Z,17.90
2019-05-20T16:06:18.811Z,17.80
2019-05-20T16:08:47.339Z,19.60
2019-05-20T16:11:15.801Z,21.80
2019-05-20T16:13:44.219Z,20.23
2019-05-20T16:16:13.209Z,20.00
2019-05-20T16:18:41.874Z,21.90
2019-05-20T16:21:10.470Z,20.93
2019-05-20T16:23:38.890Z,20.70
2019-05-20T16:26:07.437Z,24.30
2019-05-20T16:28:35.858Z,22.70
2019-05-20T16:31:04.318Z,27.70
2019-05-20T16:33:33.133Z,26.50
2019-05-20T16:36:01.677Z,30.60
2019-05-20T16:38:30.098Z,29.73
2019-05-20T16:40:58.509Z,29.97
2019-05-20T16:43:26.970Z,31.23
2019-05-20T16:45:55.416Z,32.53
2019-05-20T16:48:23.823Z,34.80
2019-05-20T16:50:52.229Z,34.87
2019-05-20T16:53:20.658Z,36.10
2019-05-20T16:55:49.141Z,35.70
2019-05-20T16:58:17.607Z,35.87
2019-05-20T17:00:46.016Z,35.17
2019-05-20T17:03:14.484Z,42.17
2019-05-20T17:05:42.934Z,40.60
2019-05-20T17:08:11.491Z,43.13
2019-05-20T17:10:39.935Z,40.80
2019-05-20T17:13:08.403Z,42.33
2019-05-20T17:15:36.932Z,42.23
2019-05-20T17:18:05.469Z,36.87
2019-05-20T17:20:33.868Z,42.83
2019-05-20T17:23:02.300Z,50.40
2019-05-20T17:25:30.731Z,40.07
2019-05-20T17:27:59.184Z,53.13
2019-05-20T17:30:27.588Z,40.57
2019-05-20T17:32:56.039Z,46.23
2019-05-20T17:35:24.522Z,49.80
2019-05-20T17:37:55.249Z,50.30
2019-05-20T17:40:23.376Z,45.43
2019-05-20T17:42:51.905Z,48.20
2019-05-20T17:45:20.874Z,46.53
2019-05-20T17:47:49.345Z,44.40
2019-05-20T17:50:18.237Z,39.00
2019-05-20T17:52:46.700Z,51.40
2019-05-20T17:55:15.263Z,49.73
2019-05-20T17:57:43.718Z,49.53
2019-05-20T18:00:16.904Z,47.90
2019-05-20T18:02:45.435Z,43.37
2019-05-20T18:05:14.983Z,46.03
2019-05-20T18:07:43.581Z,47.53
2019-05-20T18:10:12.483Z,46.70
2019-05-20T18:12:41.256Z,50.50
2019-05-20T18:15:10.032Z,48.33
2019-05-20T18:17:38.433Z,52.80
2019-05-20T18:20:06.932Z,48.17
2019-05-20T18:22:35.412Z,49.93
2019-05-20T18:25:05.812Z,47.60
2019-05-20T18:27:34.231Z,51.00
2019-05-20T18:30:02.676Z,44.20
2019-05-20T18:32:31.155Z,46.50
2019-05-20T18:34:59.624Z,35.53
2019-05-20T18:37:28.140Z,41.30
2019-05-20T18:39:56.592Z,41.40
2019-05-20T18:42:25.020Z,44.30
2019-05-20T18:44:53.619Z,47.33
2019-05-20T18:47:22.032Z,49.70
2019-05-20T18:49:50.455Z,62.07
2019-05-20T18:52:19.225Z,61.23
2019-05-20T18:54:48.720Z,56.73
2019-05-20T18:57:17.359Z,56.93
2019-05-20T18:59:45.856Z,49.37
2019-05-20T19:02:14.256Z,50.30
2019-05-20T19:04:42.713Z,48.80
2019-05-20T19:07:11.176Z,48.17
2019-05-20T19:09:39.626Z,40.00
2019-05-20T19:12:08.132Z,41.40
2019-05-20T19:14:36.725Z,33.90
2019-05-20T19:17:05.367Z,36.73
2019-05-20T19:19:33.857Z,37.17
2019-05-20T19:22:02.350Z,39.47
2019-05-20T19:24:37.506Z,40.00
2019-05-20T19:27:06.083Z,36.33
2019-05-20T19:29:35.003Z,29.57
2019-05-20T19:32:07.170Z,35.20
2019-05-20T19:34:35.740Z,30.43
2019-05-20T19:37:06.181Z,35.97
2019-05-20T19:39:34.785Z,36.17
2019-05-20T19:42:03.450Z,34.47
2019-05-20T19:44:32.570Z,41.23
2019-05-20T19:47:01.029Z,41.13
2019-05-20T19:49:31.895Z,39.53
2019-05-20T19:52:00.303Z,41.57
2019-05-20T19:54:28.719Z,36.70
2019-05-20T19:56:57.239Z,37.43
2019-05-20T19:59:25.641Z,37.60
2019-05-20T20:01:54.049Z,34.97
2019-05-20T20:04:22.461Z,43.17
2019-05-20T20:06:51.525Z,35.10
2019-05-20T20:09:20.205Z,30.87
2019-05-20T20:11:48.891Z,33.13
2019-05-20T20:14:17.406Z,32.87
2019-05-20T20:16:46.076Z,35.17
2019-05-20T20:19:14.618Z,35.47
2019-05-20T20:21:43.330Z,35.97
2019-05-20T20:24:15.103Z,34.20
2019-05-20T20:26:43.555Z,32.57
2019-05-20T20:29:12.045Z,28.40
2019-05-20T20:31:40.504Z,33.60
2019-05-20T20:34:09.093Z,30.80
2019-05-20T20:36:37.947Z,38.27
2019-05-20T20:39:07.367Z,25.80
2019-05-20T20:41:35.796Z,25.33
2019-05-20T20:44:04.556Z,26.87
2019-05-20T20:46:33.107Z,25.30
2019-05-20T20:49:01.581Z,24.30
2019-05-20T20:51:30.136Z,20.80
2019-05-20T20:53:58.651Z,24.47
2019-05-20T20:56:27.115Z,25.27
2019-05-20T20:58:55.522Z,19.53
2019-05-20T21:01:23.989Z,21.60
2019-05-20T21:03:52.393Z,26.60
2019-05-20T21:06:20.832Z,18.00
2019-05-20T21:08:50.145Z,21.13
2019-05-20T21:11:18.697Z,21.03
2019-05-20T21:13:47.166Z,23.57
2019-05-20T21:16:15.583Z,21.43
2019-05-20T21:18:43.993Z,25.57
2019-05-20T21:21:12.467Z,24.03
2019-05-20T21:23:40.920Z,30.90
2019-05-20T21:26:09.353Z,29.83
2019-05-20T21:28:37.766Z,23.60
2019-05-20T21:31:06.213Z,28.90
2019-05-20T21:33:34.630Z,28.23
2019-05-20T21:36:07.286Z,31.90
2019-05-20T21:38:36.054Z,32.80
2019-05-20T21:41:04.528Z,38.97
2019-05-20T21:43:33.020Z,33.00
2019-05-20T21:46:01.774Z,37.83
2019-05-20T21:48:30.281Z,43.87
2019-05-20T21:50:58.701Z,40.90
2019-05-20T21:53:27.148Z,38.53
2019-05-20T21:55:55.614Z,41.40
2019-05-20T21:58:24.328Z,43.43
2019-05-20T22:00:54.037Z,37.63
2019-05-20T22:03:24.966Z,39.77
2019-05-20T22:05:53.018Z,41.77
2019-05-20T22:08:21.568Z,37.93
2019-05-20T22:10:52.340Z,36.50
2019-05-20T22:13:20.812Z,33.60
2019-05-20T22:15:49.256Z,34.33
2019-05-20T22:18:17.985Z,39.37
2019-05-20T22:20:46.559Z,34.63
2019-05-20T22:23:16.720Z,42.17
2019-05-20T22:25:49.702Z,33.90
2019-05-20T22:28:18.183Z,35.37
2019-05-20T22:30:46.708Z,36.30
2019-05-20T22:33:15.469Z,43.17
2019-05-20T22:35:43.983Z,41.17
2019-05-20T22:38:12.500Z,38.17
2019-05-20T22:40:41.023Z,39.77
2019-05-20T22:43:09.453Z,34.67
2019-05-20T22:45:37.985Z,31.37
2019-05-20T22:48:06.417Z,32.10
2019-05-20T22:50:35.131Z,30.37
2019-05-20T22:53:03.630Z,26.97
2019-05-20T22:55:32.031Z,32.73
2019-05-20T22:58:00.508Z,28.43
2019-05-20T23:00:28.948Z,26.47
2019-05-20T23:02:57.656Z,30.23
2019-05-20T23:05:26.097Z,28.90
2019-05-20T23:07:54.566Z,24.37
2019-05-20T23:10:23.066Z,20.50
2019-05-20T23:12:51.587Z,22.47
2019-05-20T23:15:20.065Z,25.87
2019-05-20T23:17:48.623Z,25.50
2019-05-20T23:20:17.135Z,22.47
2019-05-20T23:22:45.536Z,20.07
2019-05-20T23:25:13.934Z,23.73
2019-05-20T23:27:42.373Z,16.77
2019-05-20T23:30:11.118Z,22.90
2019-05-20T23:32:39.821Z,19.00
2019-05-20T23:35:08.474Z,19.57
2019-05-20T23:37:36.936Z,19.67
2019-05-20T23:40:08.494Z,19.27
2019-05-20T23:42:36.912Z,16.73
2019-05-20T23:45:07.162Z,17.40
2019-05-20T23:47:35.655Z,16.97
2019-05-20T23:50:05.013Z,17.63
2019-05-20T23:52:33.436Z,17.57
2019-05-20T23:55:01.969Z,20.10
2019-05-20T23:57:30.433Z,16.03
2019-05-20T23:59:58.852Z,19.13
